sensor_id;sensor_type;location;lat;lon;timestamp;P1;durP1;ratioP1;P2;durP2;ratioP2
2570;SDS011;1295;51.130;6.732;2023-02-22T00:00:22;145.73;;;38.83;;
2570;SDS011;1295;51.130;6.732;2023-02-22T00:02:49;132.20;;;33.67;;
2570;SDS011;1295;51.130;6.732;2023-02-22T00:05:15;150.43;;;36.90;;
2570;SDS011;1295;51.130;6.732;2023-02-22T00:07:40;146.70;;;36.00;;
2570;SDS011;1295;51.130;6.732;2023-02-22T00:10:06;158.57;;;37.40;;
2570;SDS011;1295;51.130;6.732;2023-02-22T00:12:32;143.70;;;34.27;;
2570;SDS011;1295;51.130;6.732;2023-02-22T00:14:58;120.47;;;31.33;;
2570;SDS011;1295;51.130;6.732;2023-02-22T00:17:23;130.87;;;31.23;;
2570;SDS011;1295;51.130;6.732;2023-02-22T00:19:50;154.60;;;37.73;;
2570;SDS011;1295;51.130;6.732;2023-02-22T00:22:15;132.83;;;31.17;;
2570;SDS011;1295;51.130;6.732;2023-02-22T00:24:41;134.40;;;31.37;;
2570;SDS011;1295;51.130;6.732;2023-02-22T00:27:07;118.30;;;33.27;;
2570;SDS011;1295;51.130;6.732;2023-02-22T00:29:33;119.43;;;29.90;;
2570;SDS011;1295;51.130;6.732;2023-02-22T00:32:00;125.07;;;30.83;;
2570;SDS011;1295;51.130;6.732;2023-02-22T00:34:25;132.27;;;32.97;;
2570;SDS011;1295;51.130;6.732;2023-02-22T00:36:52;124.50;;;30.90;;
2570;SDS011;1295;51.130;6.732;2023-02-22T00:39:17;135.43;;;29.90;;
2570;SDS011;1295;51.130;6.732;2023-02-22T00:41:43;121.20;;;30.93;;
2570;SDS011;1295;51.130;6.732;2023-02-22T00:44:09;144.00;;;32.00;;
2570;SDS011;1295;51.130;6.732;2023-02-22T00:46:34;135.70;;;30.87;;
2570;SDS011;1295;51.130;6.732;2023-02-22T00:49:16;124.73;;;31.27;;
2570;SDS011;1295;51.130;6.732;2023-02-22T00:51:41;120.23;;;26.30;;
2570;SDS011;1295;51.130;6.732;2023-02-22T00:54:07;120.33;;;30.17;;
2570;SDS011;1295;51.130;6.732;2023-02-22T00:56:33;129.73;;;28.83;;
2570;SDS011;1295;51.130;6.732;2023-02-22T00:58:59;126.13;;;29.27;;
2570;SDS011;1295;51.130;6.732;2023-02-22T01:01:25;126.50;;;31.00;;
2570;SDS011;1295;51.130;6.732;2023-02-22T01:03:51;117.57;;;28.10;;
2570;SDS011;1295;51.130;6.732;2023-02-22T01:06:17;112.37;;;29.17;;
2570;SDS011;1295;51.130;6.732;2023-02-22T01:08:44;115.80;;;29.03;;
2570;SDS011;1295;51.130;6.732;2023-02-22T01:11:09;127.83;;;28.90;;
2570;SDS011;1295;51.130;6.732;2023-02-22T01:13:35;118.23;;;27.67;;
2570;SDS011;1295;51.130;6.732;2023-02-22T01:16:01;136.97;;;28.90;;
2570;SDS011;1295;51.130;6.732;2023-02-22T01:18:26;118.00;;;28.03;;
2570;SDS011;1295;51.130;6.732;2023-02-22T01:20:52;111.40;;;28.37;;
2570;SDS011;1295;51.130;6.732;2023-02-22T01:23:18;111.30;;;28.87;;
2570;SDS011;1295;51.130;6.732;2023-02-22T01:25:44;144.87;;;31.07;;
2570;SDS011;1295;51.130;6.732;2023-02-22T01:28:10;109.50;;;27.03;;
2570;SDS011;1295;51.130;6.732;2023-02-22T01:30:35;154.63;;;35.30;;
2570;SDS011;1295;51.130;6.732;2023-02-22T01:33:03;128.10;;;29.10;;
2570;SDS011;1295;51.130;6.732;2023-02-22T01:35:29;129.40;;;31.30;;
2570;SDS011;1295;51.130;6.732;2023-02-22T01:37:54;114.90;;;28.33;;
2570;SDS011;1295;51.130;6.732;2023-02-22T01:40:21;141.17;;;32.47;;
2570;SDS011;1295;51.130;6.732;2023-02-22T01:42:47;131.33;;;32.57;;
2570;SDS011;1295;51.130;6.732;2023-02-22T01:48:16;121.63;;;29.20;;
2570;SDS011;1295;51.130;6.732;2023-02-22T01:50:44;118.97;;;28.53;;
2570;SDS011;1295;51.130;6.732;2023-02-22T01:53:07;120.27;;;29.70;;
2570;SDS011;1295;51.130;6.732;2023-02-22T01:55:32;123.73;;;29.67;;
2570;SDS011;1295;51.130;6.732;2023-02-22T01:57:58;127.37;;;29.47;;
2570;SDS011;1295;51.130;6.732;2023-02-22T02:00:24;120.67;;;29.23;;
2570;SDS011;1295;51.130;6.732;2023-02-22T02:02:51;134.40;;;30.20;;
2570;SDS011;1295;51.130;6.732;2023-02-22T02:05:15;124.00;;;30.67;;
2570;SDS011;1295;51.130;6.732;2023-02-22T02:07:41;126.20;;;29.70;;
2570;SDS011;1295;51.130;6.732;2023-02-22T02:10:08;137.37;;;29.80;;
2570;SDS011;1295;51.130;6.732;2023-02-22T02:12:33;115.40;;;28.20;;
2570;SDS011;1295;51.130;6.732;2023-02-22T02:17:37;110.87;;;25.60;;
2570;SDS011;1295;51.130;6.732;2023-02-22T02:20:10;117.10;;;30.40;;
2570;SDS011;1295;51.130;6.732;2023-02-22T02:23:27;120.30;;;27.10;;
2570;SDS011;1295;51.130;6.732;2023-02-22T02:25:42;115.97;;;27.87;;
2570;SDS011;1295;51.130;6.732;2023-02-22T02:30:58;115.67;;;27.97;;
2570;SDS011;1295;51.130;6.732;2023-02-22T02:33:21;106.23;;;25.53;;
2570;SDS011;1295;51.130;6.732;2023-02-22T02:35:50;127.23;;;28.63;;
2570;SDS011;1295;51.130;6.732;2023-02-22T02:38:18;128.13;;;28.13;;
2570;SDS011;1295;51.130;6.732;2023-02-22T02:40:46;119.50;;;27.57;;
2570;SDS011;1295;51.130;6.732;2023-02-22T02:43:14;115.27;;;25.83;;
2570;SDS011;1295;51.130;6.732;2023-02-22T02:45:43;115.93;;;29.30;;
2570;SDS011;1295;51.130;6.732;2023-02-22T02:48:10;125.47;;;30.20;;
2570;SDS011;1295;51.130;6.732;2023-02-22T02:50:36;112.73;;;27.17;;
2570;SDS011;1295;51.130;6.732;2023-02-22T02:53:03;108.57;;;26.97;;
2570;SDS011;1295;51.130;6.732;2023-02-22T02:55:28;134.13;;;27.30;;
2570;SDS011;1295;51.130;6.732;2023-02-22T02:57:54;107.53;;;25.13;;
2570;SDS011;1295;51.130;6.732;2023-02-22T03:00:21;109.00;;;27.40;;
2570;SDS011;1295;51.130;6.732;2023-02-22T03:08:20;125.27;;;30.20;;
2570;SDS011;1295;51.130;6.732;2023-02-22T03:10:54;128.07;;;30.07;;
2570;SDS011;1295;51.130;6.732;2023-02-22T03:13:39;115.07;;;26.27;;
2570;SDS011;1295;51.130;6.732;2023-02-22T03:16:10;121.53;;;31.33;;
2570;SDS011;1295;51.130;6.732;2023-02-22T03:18:36;119.67;;;28.27;;
2570;SDS011;1295;51.130;6.732;2023-02-22T03:21:08;118.17;;;32.10;;
2570;SDS011;1295;51.130;6.732;2023-02-22T03:23:50;115.23;;;29.50;;
2570;SDS011;1295;51.130;6.732;2023-02-22T03:26:15;118.43;;;31.70;;
2570;SDS011;1295;51.130;6.732;2023-02-22T03:28:40;110.13;;;29.53;;
2570;SDS011;1295;51.130;6.732;2023-02-22T03:31:08;125.47;;;25.70;;
2570;SDS011;1295;51.130;6.732;2023-02-22T03:33:34;144.07;;;27.40;;
2570;SDS011;1295;51.130;6.732;2023-02-22T03:36:01;114.50;;;25.97;;
2570;SDS011;1295;51.130;6.732;2023-02-22T03:38:25;126.37;;;28.20;;
2570;SDS011;1295;51.130;6.732;2023-02-22T03:40:50;118.43;;;26.17;;
2570;SDS011;1295;51.130;6.732;2023-02-22T03:43:17;112.77;;;28.50;;
2570;SDS011;1295;51.130;6.732;2023-02-22T03:45:42;107.17;;;26.93;;
2570;SDS011;1295;51.130;6.732;2023-02-22T03:48:17;119.20;;;27.20;;
2570;SDS011;1295;51.130;6.732;2023-02-22T03:50:46;118.33;;;27.23;;
2570;SDS011;1295;51.130;6.732;2023-02-22T03:53:12;118.60;;;25.90;;
2570;SDS011;1295;51.130;6.732;2023-02-22T03:55:38;106.27;;;25.00;;
2570;SDS011;1295;51.130;6.732;2023-02-22T03:58:05;116.80;;;25.00;;
2570;SDS011;1295;51.130;6.732;2023-02-22T04:00:31;105.20;;;23.53;;
2570;SDS011;1295;51.130;6.732;2023-02-22T04:02:56;110.60;;;27.97;;
2570;SDS011;1295;51.130;6.732;2023-02-22T04:05:21;112.83;;;26.57;;
2570;SDS011;1295;51.130;6.732;2023-02-22T04:07:47;100.73;;;23.50;;
2570;SDS011;1295;51.130;6.732;2023-02-22T04:10:14;101.43;;;25.40;;
2570;SDS011;1295;51.130;6.732;2023-02-22T04:12:38;102.27;;;25.83;;
2570;SDS011;1295;51.130;6.732;2023-02-22T04:15:04;105.23;;;25.97;;
2570;SDS011;1295;51.130;6.732;2023-02-22T04:17:31;102.30;;;25.20;;
2570;SDS011;1295;51.130;6.732;2023-02-22T04:19:57;107.40;;;25.40;;
2570;SDS011;1295;51.130;6.732;2023-02-22T04:22:23;126.73;;;28.30;;
2570;SDS011;1295;51.130;6.732;2023-02-22T04:24:49;106.70;;;28.67;;
2570;SDS011;1295;51.130;6.732;2023-02-22T04:27:15;103.20;;;26.30;;
2570;SDS011;1295;51.130;6.732;2023-02-22T04:29:41;101.10;;;23.63;;
2570;SDS011;1295;51.130;6.732;2023-02-22T04:32:07;101.57;;;25.73;;
2570;SDS011;1295;51.130;6.732;2023-02-22T04:34:32;107.97;;;24.87;;
2570;SDS011;1295;51.130;6.732;2023-02-22T04:36:58;95.50;;;24.10;;
2570;SDS011;1295;51.130;6.732;2023-02-22T04:39:24;101.83;;;25.10;;
2570;SDS011;1295;51.130;6.732;2023-02-22T04:41:50;111.33;;;26.80;;
2570;SDS011;1295;51.130;6.732;2023-02-22T04:44:16;104.57;;;28.70;;
2570;SDS011;1295;51.130;6.732;2023-02-22T04:46:42;108.57;;;26.80;;
2570;SDS011;1295;51.130;6.732;2023-02-22T04:49:08;102.57;;;26.23;;
2570;SDS011;1295;51.130;6.732;2023-02-22T04:51:33;111.50;;;28.70;;
2570;SDS011;1295;51.130;6.732;2023-02-22T04:53:59;104.27;;;25.97;;
2570;SDS011;1295;51.130;6.732;2023-02-22T04:56:25;119.67;;;31.50;;
2570;SDS011;1295;51.130;6.732;2023-02-22T04:58:51;115.10;;;28.73;;
2570;SDS011;1295;51.130;6.732;2023-02-22T05:01:17;109.03;;;27.20;;
2570;SDS011;1295;51.130;6.732;2023-02-22T05:03:43;111.90;;;28.50;;
2570;SDS011;1295;51.130;6.732;2023-02-22T05:06:09;115.13;;;29.10;;
2570;SDS011;1295;51.130;6.732;2023-02-22T05:08:35;101.17;;;25.20;;
2570;SDS011;1295;51.130;6.732;2023-02-22T05:11:00;106.03;;;25.70;;
2570;SDS011;1295;51.130;6.732;2023-02-22T05:13:26;106.50;;;26.40;;
2570;SDS011;1295;51.130;6.732;2023-02-22T05:15:52;101.30;;;25.50;;
2570;SDS011;1295;51.130;6.732;2023-02-22T05:18:17;106.43;;;25.07;;
2570;SDS011;1295;51.130;6.732;2023-02-22T05:20:43;118.27;;;27.57;;
2570;SDS011;1295;51.130;6.732;2023-02-22T05:23:08;107.37;;;26.03;;
2570;SDS011;1295;51.130;6.732;2023-02-22T05:25:34;112.03;;;28.60;;
2570;SDS011;1295;51.130;6.732;2023-02-22T05:28:02;99.77;;;22.50;;
2570;SDS011;1295;51.130;6.732;2023-02-22T05:30:27;108.53;;;27.53;;
2570;SDS011;1295;51.130;6.732;2023-02-22T05:32:52;98.73;;;23.43;;
2570;SDS011;1295;51.130;6.732;2023-02-22T05:35:18;105.03;;;24.83;;
2570;SDS011;1295;51.130;6.732;2023-02-22T05:37:50;113.33;;;28.77;;
2570;SDS011;1295;51.130;6.732;2023-02-22T05:40:19;116.10;;;27.20;;
2570;SDS011;1295;51.130;6.732;2023-02-22T05:42:44;113.60;;;27.77;;
2570;SDS011;1295;51.130;6.732;2023-02-22T05:45:11;101.83;;;25.97;;
2570;SDS011;1295;51.130;6.732;2023-02-22T05:47:36;104.87;;;28.33;;
2570;SDS011;1295;51.130;6.732;2023-02-22T05:50:02;103.00;;;26.50;;
2570;SDS011;1295;51.130;6.732;2023-02-22T05:52:28;112.43;;;28.80;;
2570;SDS011;1295;51.130;6.732;2023-02-22T05:54:54;107.83;;;27.97;;
2570;SDS011;1295;51.130;6.732;2023-02-22T05:57:19;97.60;;;23.63;;
2570;SDS011;1295;51.130;6.732;2023-02-22T05:59:45;100.23;;;23.13;;
2570;SDS011;1295;51.130;6.732;2023-02-22T06:02:10;116.23;;;30.17;;
2570;SDS011;1295;51.130;6.732;2023-02-22T06:04:36;97.97;;;25.30;;
2570;SDS011;1295;51.130;6.732;2023-02-22T06:07:02;98.10;;;24.10;;
2570;SDS011;1295;51.130;6.732;2023-02-22T06:09:27;104.73;;;27.60;;
2570;SDS011;1295;51.130;6.732;2023-02-22T06:11:53;104.40;;;23.17;;
2570;SDS011;1295;51.130;6.732;2023-02-22T06:14:19;104.30;;;29.20;;
2570;SDS011;1295;51.130;6.732;2023-02-22T06:16:50;113.60;;;27.10;;
2570;SDS011;1295;51.130;6.732;2023-02-22T06:19:11;108.37;;;29.20;;
2570;SDS011;1295;51.130;6.732;2023-02-22T06:21:36;98.17;;;24.13;;
2570;SDS011;1295;51.130;6.732;2023-02-22T06:24:02;105.30;;;26.17;;
2570;SDS011;1295;51.130;6.732;2023-02-22T06:26:28;111.67;;;27.40;;
2570;SDS011;1295;51.130;6.732;2023-02-22T06:28:54;102.67;;;25.93;;
2570;SDS011;1295;51.130;6.732;2023-02-22T06:31:20;106.80;;;27.43;;
2570;SDS011;1295;51.130;6.732;2023-02-22T06:33:45;105.60;;;24.30;;
2570;SDS011;1295;51.130;6.732;2023-02-22T06:36:11;99.13;;;26.77;;
2570;SDS011;1295;51.130;6.732;2023-02-22T06:38:36;102.23;;;25.67;;
2570;SDS011;1295;51.130;6.732;2023-02-22T06:41:02;107.93;;;24.57;;
2570;SDS011;1295;51.130;6.732;2023-02-22T06:43:28;105.10;;;24.57;;
2570;SDS011;1295;51.130;6.732;2023-02-22T06:45:53;105.63;;;26.13;;
2570;SDS011;1295;51.130;6.732;2023-02-22T06:48:20;101.87;;;25.60;;
2570;SDS011;1295;51.130;6.732;2023-02-22T06:50:45;108.70;;;25.37;;
2570;SDS011;1295;51.130;6.732;2023-02-22T06:53:11;104.40;;;30.80;;
2570;SDS011;1295;51.130;6.732;2023-02-22T06:55:37;99.47;;;23.50;;
2570;SDS011;1295;51.130;6.732;2023-02-22T06:58:03;91.70;;;23.80;;
2570;SDS011;1295;51.130;6.732;2023-02-22T07:00:29;97.87;;;25.90;;
2570;SDS011;1295;51.130;6.732;2023-02-22T07:02:55;107.30;;;28.00;;
2570;SDS011;1295;51.130;6.732;2023-02-22T07:05:21;109.10;;;23.70;;
2570;SDS011;1295;51.130;6.732;2023-02-22T07:07:47;98.77;;;23.67;;
2570;SDS011;1295;51.130;6.732;2023-02-22T07:10:16;108.83;;;22.37;;
2570;SDS011;1295;51.130;6.732;2023-02-22T07:12:40;100.50;;;27.10;;
2570;SDS011;1295;51.130;6.732;2023-02-22T07:15:06;95.77;;;23.83;;
2570;SDS011;1295;51.130;6.732;2023-02-22T07:17:42;92.33;;;23.63;;
2570;SDS011;1295;51.130;6.732;2023-02-22T07:20:09;95.67;;;22.83;;
2570;SDS011;1295;51.130;6.732;2023-02-22T07:22:35;92.60;;;22.17;;
2570;SDS011;1295;51.130;6.732;2023-02-22T07:25:01;100.17;;;22.60;;
2570;SDS011;1295;51.130;6.732;2023-02-22T07:27:28;105.07;;;24.10;;
2570;SDS011;1295;51.130;6.732;2023-02-22T07:29:53;101.67;;;23.00;;
2570;SDS011;1295;51.130;6.732;2023-02-22T07:32:19;92.73;;;22.63;;
2570;SDS011;1295;51.130;6.732;2023-02-22T07:34:45;93.17;;;23.27;;
2570;SDS011;1295;51.130;6.732;2023-02-22T07:37:10;85.90;;;20.03;;
2570;SDS011;1295;51.130;6.732;2023-02-22T07:39:36;93.30;;;21.20;;
2570;SDS011;1295;51.130;6.732;2023-02-22T07:42:07;95.47;;;20.23;;
2570;SDS011;1295;51.130;6.732;2023-02-22T07:44:33;90.97;;;22.87;;
2570;SDS011;1295;51.130;6.732;2023-02-22T07:46:59;90.57;;;22.63;;
2570;SDS011;1295;51.130;6.732;2023-02-22T07:49:24;95.30;;;21.97;;
2570;SDS011;1295;51.130;6.732;2023-02-22T07:51:50;99.80;;;23.63;;
2570;SDS011;1295;51.130;6.732;2023-02-22T07:54:16;86.63;;;22.40;;
2570;SDS011;1295;51.130;6.732;2023-02-22T07:56:44;92.70;;;20.70;;
2570;SDS011;1295;51.130;6.732;2023-02-22T07:59:09;96.07;;;22.80;;
2570;SDS011;1295;51.130;6.732;2023-02-22T08:01:35;92.03;;;23.50;;
2570;SDS011;1295;51.130;6.732;2023-02-22T08:04:01;90.57;;;21.47;;
2570;SDS011;1295;51.130;6.732;2023-02-22T08:06:27;89.30;;;22.40;;
2570;SDS011;1295;51.130;6.732;2023-02-22T08:08:55;90.47;;;22.47;;
2570;SDS011;1295;51.130;6.732;2023-02-22T08:11:21;88.47;;;22.90;;
2570;SDS011;1295;51.130;6.732;2023-02-22T08:13:47;94.13;;;24.70;;
2570;SDS011;1295;51.130;6.732;2023-02-22T08:16:12;86.13;;;22.40;;
2570;SDS011;1295;51.130;6.732;2023-02-22T08:18:38;90.83;;;22.27;;
2570;SDS011;1295;51.130;6.732;2023-02-22T08:21:04;85.17;;;20.33;;
2570;SDS011;1295;51.130;6.732;2023-02-22T08:23:30;90.27;;;22.60;;
2570;SDS011;1295;51.130;6.732;2023-02-22T08:25:55;88.83;;;21.97;;
2570;SDS011;1295;51.130;6.732;2023-02-22T08:28:22;92.70;;;24.47;;
2570;SDS011;1295;51.130;6.732;2023-02-22T08:30:47;92.77;;;24.27;;
2570;SDS011;1295;51.130;6.732;2023-02-22T08:33:13;85.47;;;22.30;;
2570;SDS011;1295;51.130;6.732;2023-02-22T08:35:38;87.70;;;24.47;;
2570;SDS011;1295;51.130;6.732;2023-02-22T08:38:04;96.23;;;26.03;;
2570;SDS011;1295;51.130;6.732;2023-02-22T08:40:31;95.23;;;24.70;;
2570;SDS011;1295;51.130;6.732;2023-02-22T08:42:55;89.60;;;22.20;;
2570;SDS011;1295;51.130;6.732;2023-02-22T08:45:28;86.83;;;23.27;;
2570;SDS011;1295;51.130;6.732;2023-02-22T08:47:54;97.53;;;22.80;;
2570;SDS011;1295;51.130;6.732;2023-02-22T08:50:24;93.73;;;22.57;;
2570;SDS011;1295;51.130;6.732;2023-02-22T08:52:50;91.07;;;22.30;;
2570;SDS011;1295;51.130;6.732;2023-02-22T08:55:17;84.33;;;21.90;;
2570;SDS011;1295;51.130;6.732;2023-02-22T08:57:41;88.53;;;23.53;;
2570;SDS011;1295;51.130;6.732;2023-02-22T09:00:07;98.03;;;32.20;;
2570;SDS011;1295;51.130;6.732;2023-02-22T09:02:48;84.83;;;22.17;;
2570;SDS011;1295;51.130;6.732;2023-02-22T09:05:14;94.93;;;25.37;;
2570;SDS011;1295;51.130;6.732;2023-02-22T09:07:40;88.27;;;20.73;;
2570;SDS011;1295;51.130;6.732;2023-02-22T09:10:05;88.53;;;22.07;;
2570;SDS011;1295;51.130;6.732;2023-02-22T09:12:31;92.30;;;25.00;;
2570;SDS011;1295;51.130;6.732;2023-02-22T09:14:57;92.87;;;27.40;;
2570;SDS011;1295;51.130;6.732;2023-02-22T09:17:23;91.10;;;26.30;;
2570;SDS011;1295;51.130;6.732;2023-02-22T09:19:49;89.27;;;32.00;;
2570;SDS011;1295;51.130;6.732;2023-02-22T09:22:14;90.93;;;24.87;;
2570;SDS011;1295;51.130;6.732;2023-02-22T09:24:40;85.30;;;19.83;;
2570;SDS011;1295;51.130;6.732;2023-02-22T09:27:06;87.07;;;21.00;;
2570;SDS011;1295;51.130;6.732;2023-02-22T09:29:31;99.47;;;51.30;;
2570;SDS011;1295;51.130;6.732;2023-02-22T09:31:57;109.23;;;55.03;;
2570;SDS011;1295;51.130;6.732;2023-02-22T09:34:23;91.87;;;27.30;;
2570;SDS011;1295;51.130;6.732;2023-02-22T09:36:49;99.67;;;39.70;;
2570;SDS011;1295;51.130;6.732;2023-02-22T09:39:15;95.77;;;44.33;;
2570;SDS011;1295;51.130;6.732;2023-02-22T09:41:47;95.30;;;36.23;;
2570;SDS011;1295;51.130;6.732;2023-02-22T09:44:49;101.57;;;35.33;;
2570;SDS011;1295;51.130;6.732;2023-02-22T09:47:15;88.13;;;30.57;;
2570;SDS011;1295;51.130;6.732;2023-02-22T09:49:40;97.47;;;40.10;;
2570;SDS011;1295;51.130;6.732;2023-02-22T09:52:07;99.10;;;35.27;;
2570;SDS011;1295;51.130;6.732;2023-02-22T09:54:33;102.70;;;23.93;;
2570;SDS011;1295;51.130;6.732;2023-02-22T09:57:03;87.80;;;23.00;;
2570;SDS011;1295;51.130;6.732;2023-02-22T09:59:30;93.00;;;24.43;;
2570;SDS011;1295;51.130;6.732;2023-02-22T10:01:56;90.97;;;31.93;;
2570;SDS011;1295;51.130;6.732;2023-02-22T10:04:22;103.70;;;35.33;;
2570;SDS011;1295;51.130;6.732;2023-02-22T10:06:52;96.63;;;37.37;;
2570;SDS011;1295;51.130;6.732;2023-02-22T10:09:16;95.63;;;24.87;;
2570;SDS011;1295;51.130;6.732;2023-02-22T10:11:46;91.87;;;23.50;;
2570;SDS011;1295;51.130;6.732;2023-02-22T10:14:29;92.87;;;25.10;;
2570;SDS011;1295;51.130;6.732;2023-02-22T10:17:28;89.77;;;22.10;;
2570;SDS011;1295;51.130;6.732;2023-02-22T10:20:06;89.40;;;22.90;;
2570;SDS011;1295;51.130;6.732;2023-02-22T10:25:19;87.60;;;22.43;;
2570;SDS011;1295;51.130;6.732;2023-02-22T10:27:45;84.80;;;20.97;;
2570;SDS011;1295;51.130;6.732;2023-02-22T10:30:19;86.27;;;21.70;;
2570;SDS011;1295;51.130;6.732;2023-02-22T10:32:46;82.87;;;20.87;;
2570;SDS011;1295;51.130;6.732;2023-02-22T10:35:15;88.20;;;22.83;;
2570;SDS011;1295;51.130;6.732;2023-02-22T10:37:40;87.00;;;22.00;;
2570;SDS011;1295;51.130;6.732;2023-02-22T10:40:15;87.30;;;27.63;;
2570;SDS011;1295;51.130;6.732;2023-02-22T10:42:43;86.87;;;24.27;;
2570;SDS011;1295;51.130;6.732;2023-02-22T10:45:18;86.73;;;22.30;;
2570;SDS011;1295;51.130;6.732;2023-02-22T10:47:41;85.40;;;22.57;;
2570;SDS011;1295;51.130;6.732;2023-02-22T10:50:10;93.87;;;32.23;;
2570;SDS011;1295;51.130;6.732;2023-02-22T10:52:40;81.10;;;21.30;;
2570;SDS011;1295;51.130;6.732;2023-02-22T10:55:11;86.87;;;19.60;;
2570;SDS011;1295;51.130;6.732;2023-02-22T10:57:33;82.57;;;20.33;;
2570;SDS011;1295;51.130;6.732;2023-02-22T11:00:12;87.37;;;24.17;;
2570;SDS011;1295;51.130;6.732;2023-02-22T11:02:30;88.13;;;24.27;;
2570;SDS011;1295;51.130;6.732;2023-02-22T11:04:57;83.80;;;17.87;;
2570;SDS011;1295;51.130;6.732;2023-02-22T11:10:04;86.13;;;20.73;;
2570;SDS011;1295;51.130;6.732;2023-02-22T11:12:29;85.77;;;27.33;;
2570;SDS011;1295;51.130;6.732;2023-02-22T11:14:56;85.57;;;18.67;;
2570;SDS011;1295;51.130;6.732;2023-02-22T11:17:29;82.37;;;22.07;;
2570;SDS011;1295;51.130;6.732;2023-02-22T11:19:49;85.43;;;24.50;;
2570;SDS011;1295;51.130;6.732;2023-02-22T11:22:20;91.50;;;19.17;;
2570;SDS011;1295;51.130;6.732;2023-02-22T11:24:48;89.20;;;25.20;;
2570;SDS011;1295;51.130;6.732;2023-02-22T11:27:21;78.80;;;21.37;;
2570;SDS011;1295;51.130;6.732;2023-02-22T11:29:46;84.00;;;19.50;;
2570;SDS011;1295;51.130;6.732;2023-02-22T11:32:12;79.87;;;20.33;;
2570;SDS011;1295;51.130;6.732;2023-02-22T11:34:38;102.13;;;29.73;;
2570;SDS011;1295;51.130;6.732;2023-02-22T11:39:40;83.73;;;15.60;;
2570;SDS011;1295;51.130;6.732;2023-02-22T11:42:16;80.83;;;19.37;;
2570;SDS011;1295;51.130;6.732;2023-02-22T11:44:38;84.37;;;17.30;;
2570;SDS011;1295;51.130;6.732;2023-02-22T11:47:03;79.83;;;18.50;;
2570;SDS011;1295;51.130;6.732;2023-02-22T11:49:31;74.60;;;15.27;;
2570;SDS011;1295;51.130;6.732;2023-02-22T11:52:03;76.57;;;16.47;;
2570;SDS011;1295;51.130;6.732;2023-02-22T11:54:35;77.57;;;16.23;;
2570;SDS011;1295;51.130;6.732;2023-02-22T11:57:06;82.80;;;17.60;;
2570;SDS011;1295;51.130;6.732;2023-02-22T11:59:35;75.77;;;15.77;;
2570;SDS011;1295;51.130;6.732;2023-02-22T12:05:00;76.80;;;25.90;;
2570;SDS011;1295;51.130;6.732;2023-02-22T12:07:47;80.60;;;18.60;;
2570;SDS011;1295;51.130;6.732;2023-02-22T12:10:20;79.27;;;22.47;;
2570;SDS011;1295;51.130;6.732;2023-02-22T12:13:00;78.93;;;20.20;;
2570;SDS011;1295;51.130;6.732;2023-02-22T12:15:33;84.03;;;26.03;;
2570;SDS011;1295;51.130;6.732;2023-02-22T12:18:00;82.03;;;21.40;;
2570;SDS011;1295;51.130;6.732;2023-02-22T12:20:26;81.43;;;22.60;;
2570;SDS011;1295;51.130;6.732;2023-02-22T12:23:13;77.10;;;18.70;;
2570;SDS011;1295;51.130;6.732;2023-02-22T12:25:46;69.90;;;13.47;;
2570;SDS011;1295;51.130;6.732;2023-02-22T12:28:14;77.80;;;17.73;;
2570;SDS011;1295;51.130;6.732;2023-02-22T12:30:36;73.77;;;16.83;;
2570;SDS011;1295;51.130;6.732;2023-02-22T12:33:03;73.97;;;14.63;;
2570;SDS011;1295;51.130;6.732;2023-02-22T12:35:29;75.47;;;15.23;;
2570;SDS011;1295;51.130;6.732;2023-02-22T12:37:58;72.17;;;13.97;;
2570;SDS011;1295;51.130;6.732;2023-02-22T12:40:46;72.90;;;18.00;;
2570;SDS011;1295;51.130;6.732;2023-02-22T12:43:12;72.87;;;13.77;;
2570;SDS011;1295;51.130;6.732;2023-02-22T12:45:43;77.50;;;15.73;;
2570;SDS011;1295;51.130;6.732;2023-02-22T12:50:55;75.10;;;17.17;;
2570;SDS011;1295;51.130;6.732;2023-02-22T12:53:26;76.50;;;16.40;;
2570;SDS011;1295;51.130;6.732;2023-02-22T12:55:51;84.90;;;18.90;;
2570;SDS011;1295;51.130;6.732;2023-02-22T12:58:20;74.20;;;15.97;;
2570;SDS011;1295;51.130;6.732;2023-02-22T13:03:31;73.87;;;13.23;;
2570;SDS011;1295;51.130;6.732;2023-02-22T13:06:06;71.17;;;16.27;;
2570;SDS011;1295;51.130;6.732;2023-02-22T13:08:36;82.70;;;18.17;;
2570;SDS011;1295;51.130;6.732;2023-02-22T13:11:07;76.43;;;17.07;;
2570;SDS011;1295;51.130;6.732;2023-02-22T13:13:37;77.47;;;15.50;;
2570;SDS011;1295;51.130;6.732;2023-02-22T13:16:06;75.80;;;15.13;;
2570;SDS011;1295;51.130;6.732;2023-02-22T13:18:35;77.67;;;13.50;;
2570;SDS011;1295;51.130;6.732;2023-02-22T13:21:01;72.60;;;15.20;;
2570;SDS011;1295;51.130;6.732;2023-02-22T13:23:30;76.47;;;19.27;;
2570;SDS011;1295;51.130;6.732;2023-02-22T13:26:03;78.77;;;16.90;;
2570;SDS011;1295;51.130;6.732;2023-02-22T13:28:37;78.70;;;17.23;;
2570;SDS011;1295;51.130;6.732;2023-02-22T13:31:23;79.77;;;15.90;;
2570;SDS011;1295;51.130;6.732;2023-02-22T13:33:55;78.03;;;17.40;;
2570;SDS011;1295;51.130;6.732;2023-02-22T13:39:30;70.87;;;17.70;;
2570;SDS011;1295;51.130;6.732;2023-02-22T13:44:29;76.20;;;16.63;;
2570;SDS011;1295;51.130;6.732;2023-02-22T13:50:08;69.53;;;13.17;;
2570;SDS011;1295;51.130;6.732;2023-02-22T13:52:44;70.27;;;13.87;;
2570;SDS011;1295;51.130;6.732;2023-02-22T13:55:16;73.50;;;14.27;;
2570;SDS011;1295;51.130;6.732;2023-02-22T13:57:41;72.87;;;16.70;;
2570;SDS011;1295;51.130;6.732;2023-02-22T14:00:17;69.00;;;13.23;;
2570;SDS011;1295;51.130;6.732;2023-02-22T14:08:02;78.33;;;16.23;;
2570;SDS011;1295;51.130;6.732;2023-02-22T14:10:35;74.43;;;18.50;;
2570;SDS011;1295;51.130;6.732;2023-02-22T14:13:03;74.70;;;15.40;;
2570;SDS011;1295;51.130;6.732;2023-02-22T14:15:28;72.20;;;13.47;;
2570;SDS011;1295;51.130;6.732;2023-02-22T14:20:38;73.13;;;14.93;;
2570;SDS011;1295;51.130;6.732;2023-02-22T14:25:42;71.37;;;14.87;;
2570;SDS011;1295;51.130;6.732;2023-02-22T14:28:09;73.77;;;13.70;;
2570;SDS011;1295;51.130;6.732;2023-02-22T14:30:38;69.40;;;12.63;;
2570;SDS011;1295;51.130;6.732;2023-02-22T14:33:48;72.30;;;13.60;;
2570;SDS011;1295;51.130;6.732;2023-02-22T14:35:31;65.67;;;11.10;;
2570;SDS011;1295;51.130;6.732;2023-02-22T14:37:55;77.20;;;16.63;;
2570;SDS011;1295;51.130;6.732;2023-02-22T14:40:22;72.13;;;12.57;;
2570;SDS011;1295;51.130;6.732;2023-02-22T14:42:47;69.07;;;12.60;;
2570;SDS011;1295;51.130;6.732;2023-02-22T14:45:19;72.83;;;17.10;;
2570;SDS011;1295;51.130;6.732;2023-02-22T14:47:48;72.73;;;13.80;;
2570;SDS011;1295;51.130;6.732;2023-02-22T14:50:19;75.93;;;19.80;;
2570;SDS011;1295;51.130;6.732;2023-02-22T14:52:46;69.73;;;13.03;;
2570;SDS011;1295;51.130;6.732;2023-02-22T14:55:16;72.07;;;12.00;;
2570;SDS011;1295;51.130;6.732;2023-02-22T15:00:20;74.57;;;13.60;;
2570;SDS011;1295;51.130;6.732;2023-02-22T15:02:46;71.03;;;13.60;;
2570;SDS011;1295;51.130;6.732;2023-02-22T15:05:12;70.40;;;13.33;;
2570;SDS011;1295;51.130;6.732;2023-02-22T15:07:36;78.43;;;13.80;;
2570;SDS011;1295;51.130;6.732;2023-02-22T15:10:05;69.73;;;13.30;;
2570;SDS011;1295;51.130;6.732;2023-02-22T15:12:57;73.80;;;20.27;;
2570;SDS011;1295;51.130;6.732;2023-02-22T15:15:31;74.63;;;18.70;;
2570;SDS011;1295;51.130;6.732;2023-02-22T15:17:57;70.57;;;14.37;;
2570;SDS011;1295;51.130;6.732;2023-02-22T15:20:23;81.20;;;14.67;;
2570;SDS011;1295;51.130;6.732;2023-02-22T15:22:48;73.53;;;15.47;;
2570;SDS011;1295;51.130;6.732;2023-02-22T15:25:14;78.53;;;14.50;;
2570;SDS011;1295;51.130;6.732;2023-02-22T15:27:40;70.53;;;12.10;;
2570;SDS011;1295;51.130;6.732;2023-02-22T15:30:08;74.40;;;15.93;;
2570;SDS011;1295;51.130;6.732;2023-02-22T15:32:36;70.80;;;15.27;;
2570;SDS011;1295;51.130;6.732;2023-02-22T15:35:36;80.90;;;15.60;;